Celebrity Galaxy — 9HJH9 — position and weather

sailwx.info

Track history (hours):
 
Tides and Currents Weather Stations Pressure Air Temp Water Temp Dewpoint Dewpoint Depression Visibility Wind Speed Wind Dir Waves Ship Positions

Celebrity Galaxy

Last reported at 2019-Nov-16 21:30 UTC. Time now 2019-Nov-20 09:25 UTC.
Position N 28°08' W 015°25'.

Length 262 m; draft 8.5 m.

Type: Passenger vessel. MMSI: 249051000.

Date/timePositionNaut miles runAvg speedWind from/ knotsBaromVisibWave heightAir tempDewpointWater temp
2019-Nov-16 21:30N 28°08' W 015°25'0 0.0
2019-Nov-16 20:28N 28°08' W 015°25'0 0.0
2019-Nov-16 19:28N 28°08' W 015°25'0 0.0
2019-Nov-16 19:00N 28°08' W 015°25'0 0.0
2019-Nov-16 18:29N 28°08' W 015°25'0 0.0
2019-Nov-16 17:30N 28°08' W 015°25'0 0.0
2019-Nov-16 16:59N 28°08' W 015°25'0 0.0
2019-Nov-16 15:59N 28°08' W 015°25'0 0.0
2019-Nov-16 15:30N 28°08' W 015°25'2 0.3
2019-Nov-16 07:30N 28°07' W 015°24'7 7.5
2019-Nov-16 06:30N 28°09' W 015°16'17 5.7
2019-Nov-16 03:30N 28°24' W 015°24'4 8.1
2019-Nov-16 03:00N 28°24' W 015°29'4 8.1
2019-Nov-16 02:30N 28°24' W 015°34'32 8.0
2019-Nov-15 22:30N 28°26' W 016°10'4 1.8
2019-Nov-15 19:59N 28°28' W 016°14'0 0.0
2019-Nov-15 19:00N 28°28' W 016°14'0 0.0
2019-Nov-15 17:59N 28°28' W 016°14'0 0.0
2019-Nov-15 15:29N 28°28' W 016°14'0 0.0
2019-Nov-15 13:29N 28°28' W 016°14'0 0.0
2019-Nov-15 11:59N 28°28' W 016°14'0 0.0
2019-Nov-15 09:28N 28°28' W 016°14'0 0.0
2019-Nov-15 08:28N 28°28' W 016°14'0 0.0
2019-Nov-15 06:59N 28°28' W 016°14'12 4.6
2019-Nov-15 04:30N 28°20' W 016°05'1414.1
2019-Nov-15 03:31N 28°08' W 015°57'4011.3
2019-Nov-15 00:00N 27°42' W 015°23'2114.0
2019-Nov-14 22:30N 27°48' W 015°01'4514.7
2019-Nov-14 19:26N 28°03' W 014°12'714.3
2019-Nov-14 18:56N 28°07' W 014°05'50 2.6
2019-Nov-13 23:30N 28°51' W 013°37'3 1.6
2019-Nov-13 21:30N 28°52' W 013°34'6 6.0
2019-Nov-13 20:30N 28°49' W 013°40'7 3.5
2019-Nov-13 18:30N 28°53' W 013°33'3 6.6
2019-Nov-13 18:00N 28°56' W 013°32'2 1.0
2019-Nov-13 15:54N 28°58' W 013°32'0 0.0
2019-Nov-13 14:08N 28°58' W 013°32'0 0.0
2019-Nov-13 13:38N 28°58' W 013°32'0 0.0
2019-Nov-13 11:12N 28°58' W 013°32'82 4.7
2019-Nov-12 17:56N 29°52' W 014°42'182 5.0
2019-Nov-11 05:47N 32°14' W 016°55'311.6
2019-Nov-11 05:30N 32°10' W 016°55'275 9.5
2019-Nov-10 00:40N 27°48' W 015°23'1613.8
2019-Nov-09 23:30N 28°03' W 015°20'611.7
2019-Nov-09 23:00N 28°08' W 015°25'1 0.1
2019-Nov-09 16:29N 28°08' W 015°25'0 0.0
2019-Nov-09 15:29N 28°08' W 015°25'0 0.0
2019-Nov-09 10:28N 28°08' W 015°25'0 0.0
2019-Nov-09 09:52N 28°08' W 015°25'15 3.5
2019-Nov-09 05:30N 28°16' W 015°10'18 9.1
2019-Nov-09 03:30N 28°24' W 015°28'5 9.4
2019-Nov-09 03:00N 28°24' W 015°34'9 9.5
2019-Nov-09 02:00N 28°24' W 015°45'13 8.9
2019-Nov-09 00:30N 28°19' W 015°59'1010.3
2019-Nov-08 23:30N 28°25' W 016°08'6 4.1
2019-Nov-08 22:00N 28°28' W 016°14'0 0.0
2019-Nov-08 21:29N 28°28' W 016°14'0 0.0
2019-Nov-08 20:56N 28°28' W 016°14'0 0.0
2019-Nov-08 20:29N 28°28' W 016°14'0 0.0
2019-Nov-08 17:28N 28°28' W 016°14'0 0.0
2019-Nov-08 16:29N 28°28' W 016°14'0 0.0
2019-Nov-08 11:00N 28°28' W 016°14'0 0.0
2019-Nov-08 09:26N 28°28' W 016°14'0 0.0
2019-Nov-08 08:59N 28°28' W 016°14'0 0.0
2019-Nov-08 08:28N 28°28' W 016°14'0 0.0
2019-Nov-08 06:58N 28°28' W 016°14'0 0.0
2019-Nov-07 23:30N 28°28' W 016°14'0 0.0
2019-Nov-07 23:00N 28°28' W 016°14'0 0.0
2019-Nov-07 21:29N 28°28' W 016°14'0 0.0
2019-Nov-07 15:30N 28°28' W 016°14'0 0.0
2019-Nov-07 14:30N 28°28' W 016°14'0 0.0
2019-Nov-07 11:59N 28°28' W 016°14'0 0.0
2019-Nov-07 10:59N 28°28' W 016°14'12 3.6
2019-Nov-07 07:31N 28°26' W 016°01'  
Track history (hours):
 
Tides and Currents Weather Stations Pressure Air Temp Water Temp Dewpoint Dewpoint Depression Visibility Wind Speed Wind Dir Waves Ship Positions

Celebrity Galaxy

Last reported at 2019-Nov-16 21:30 UTC. Time now 2019-Nov-20 09:25 UTC.
Position N 28°08' W 015°25'.

Length 262 m; draft 8.5 m.

Type: Passenger vessel. MMSI: 249051000.

Date/timePositionNaut miles runAvg speedWind from/ knotsBaromVisibWave heightAir tempDewpointWater temp
2019-Nov-16 21:30N 28°08' W 015°25'0 0.0
2019-Nov-16 20:28N 28°08' W 015°25'0 0.0
2019-Nov-16 19:28N 28°08' W 015°25'0 0.0
2019-Nov-16 19:00N 28°08' W 015°25'0 0.0
2019-Nov-16 18:29N 28°08' W 015°25'0 0.0
2019-Nov-16 17:30N 28°08' W 015°25'0 0.0
2019-Nov-16 16:59N 28°08' W 015°25'0 0.0
2019-Nov-16 15:59N 28°08' W 015°25'0 0.0
2019-Nov-16 15:30N 28°08' W 015°25'2 0.3
2019-Nov-16 07:30N 28°07' W 015°24'7 7.5
2019-Nov-16 06:30N 28°09' W 015°16'17 5.7
2019-Nov-16 03:30N 28°24' W 015°24'4 8.1
2019-Nov-16 03:00N 28°24' W 015°29'4 8.1
2019-Nov-16 02:30N 28°24' W 015°34'32 8.0
2019-Nov-15 22:30N 28°26' W 016°10'4 1.8
2019-Nov-15 19:59N 28°28' W 016°14'0 0.0
2019-Nov-15 19:00N 28°28' W 016°14'0 0.0
2019-Nov-15 17:59N 28°28' W 016°14'0 0.0
2019-Nov-15 15:29N 28°28' W 016°14'0 0.0
2019-Nov-15 13:29N 28°28' W 016°14'0 0.0
2019-Nov-15 11:59N 28°28' W 016°14'0 0.0
2019-Nov-15 09:28N 28°28' W 016°14'0 0.0
2019-Nov-15 08:28N 28°28' W 016°14'0 0.0
2019-Nov-15 06:59N 28°28' W 016°14'12 4.6
2019-Nov-15 04:30N 28°20' W 016°05'1414.1
2019-Nov-15 03:31N 28°08' W 015°57'4011.3
2019-Nov-15 00:00N 27°42' W 015°23'2114.0
2019-Nov-14 22:30N 27°48' W 015°01'4514.7
2019-Nov-14 19:26N 28°03' W 014°12'714.3
2019-Nov-14 18:56N 28°07' W 014°05'50 2.6
2019-Nov-13 23:30N 28°51' W 013°37'3 1.6
2019-Nov-13 21:30N 28°52' W 013°34'6 6.0
2019-Nov-13 20:30N 28°49' W 013°40'7 3.5
2019-Nov-13 18:30N 28°53' W 013°33'3 6.6
2019-Nov-13 18:00N 28°56' W 013°32'2 1.0
2019-Nov-13 15:54N 28°58' W 013°32'0 0.0
2019-Nov-13 14:08N 28°58' W 013°32'0 0.0
2019-Nov-13 13:38N 28°58' W 013°32'0 0.0
2019-Nov-13 11:12N 28°58' W 013°32'82 4.7
2019-Nov-12 17:56N 29°52' W 014°42'182 5.0
2019-Nov-11 05:47N 32°14' W 016°55'311.6
2019-Nov-11 05:30N 32°10' W 016°55'275 9.5
2019-Nov-10 00:40N 27°48' W 015°23'1613.8
2019-Nov-09 23:30N 28°03' W 015°20'611.7
2019-Nov-09 23:00N 28°08' W 015°25'1 0.1
2019-Nov-09 16:29N 28°08' W 015°25'0 0.0
2019-Nov-09 15:29N 28°08' W 015°25'0 0.0
2019-Nov-09 10:28N 28°08' W 015°25'0 0.0
2019-Nov-09 09:52N 28°08' W 015°25'15 3.5
2019-Nov-09 05:30N 28°16' W 015°10'18 9.1
2019-Nov-09 03:30N 28°24' W 015°28'5 9.4
2019-Nov-09 03:00N 28°24' W 015°34'9 9.5
2019-Nov-09 02:00N 28°24' W 015°45'13 8.9
2019-Nov-09 00:30N 28°19' W 015°59'1010.3
2019-Nov-08 23:30N 28°25' W 016°08'6 4.1
2019-Nov-08 22:00N 28°28' W 016°14'0 0.0
2019-Nov-08 21:29N 28°28' W 016°14'0 0.0
2019-Nov-08 20:56N 28°28' W 016°14'0 0.0
2019-Nov-08 20:29N 28°28' W 016°14'0 0.0
2019-Nov-08 17:28N 28°28' W 016°14'0 0.0
2019-Nov-08 16:29N 28°28' W 016°14'0 0.0
2019-Nov-08 11:00N 28°28' W 016°14'0 0.0
2019-Nov-08 09:26N 28°28' W 016°14'0 0.0
2019-Nov-08 08:59N 28°28' W 016°14'0 0.0
2019-Nov-08 08:28N 28°28' W 016°14'0 0.0
2019-Nov-08 06:58N 28°28' W 016°14'0 0.0
2019-Nov-07 23:30N 28°28' W 016°14'0 0.0
2019-Nov-07 23:00N 28°28' W 016°14'0 0.0
2019-Nov-07 21:29N 28°28' W 016°14'0 0.0
2019-Nov-07 15:30N 28°28' W 016°14'0 0.0
2019-Nov-07 14:30N 28°28' W 016°14'0 0.0
2019-Nov-07 11:59N 28°28' W 016°14'0 0.0
2019-Nov-07 10:59N 28°28' W 016°14'12 3.6
2019-Nov-07 07:31N 28°26' W 016°01'  

Dump ship's entire track history